createdAt,value
2018-12-01T00:03:38.459Z,6.64
2018-12-01T00:07:56.100Z,6.67
2018-12-01T00:12:04.890Z,6.70
2018-12-01T00:16:13.646Z,6.61
2018-12-01T00:20:23.771Z,6.68
2018-12-01T00:24:31.562Z,6.69
2018-12-01T00:28:39.286Z,6.62
2018-12-01T00:32:48.440Z,6.65
2018-12-01T00:36:56.958Z,6.65
2018-12-01T00:41:05.562Z,6.59
2018-12-01T00:45:20.702Z,6.64
2018-12-01T00:49:28.576Z,6.68
2018-12-01T00:53:36.250Z,6.70
2018-12-01T00:57:43.971Z,6.71
2018-12-01T01:01:51.529Z,6.85
2018-12-01T01:05:59.693Z,6.78
2018-12-01T01:10:10.414Z,6.88
2018-12-01T01:14:17.838Z,6.70
2018-12-01T01:18:25.656Z,6.64
2018-12-01T01:22:33.338Z,6.57
2018-12-01T01:26:41.117Z,6.58
2018-12-01T01:30:48.700Z,6.50
2018-12-01T01:34:56.502Z,6.46
2018-12-01T01:39:04.366Z,6.46
2018-12-01T01:43:13.021Z,6.47
2018-12-01T01:47:20.461Z,6.46
2018-12-01T01:51:28.303Z,6.51
2018-12-01T01:55:35.874Z,6.39
2018-12-01T01:59:43.425Z,6.47
2018-12-01T02:03:50.950Z,6.41
2018-12-01T02:08:01.810Z,6.41
2018-12-01T02:12:10.648Z,6.33
2018-12-01T02:16:18.356Z,6.34
2018-12-01T02:20:26.400Z,6.34
2018-12-01T02:24:34.258Z,6.28
2018-12-01T02:28:41.675Z,6.25
2018-12-01T02:32:52.347Z,6.30
2018-12-01T02:37:00.166Z,6.29
2018-12-01T02:41:08.755Z,6.23
2018-12-01T02:46:09.811Z,6.24
2018-12-01T02:50:24.019Z,6.35
2018-12-01T02:54:31.695Z,6.32
2018-12-01T02:58:41.117Z,6.30
2018-12-01T03:02:49.106Z,6.35
2018-12-01T03:06:56.911Z,6.25
2018-12-01T03:11:04.499Z,6.24
2018-12-01T03:15:19.787Z,6.19
2018-12-01T03:19:30.495Z,6.05
2018-12-01T03:23:38.205Z,6.04
2018-12-01T03:27:45.980Z,6.05
2018-12-01T03:31:53.559Z,6.06
2018-12-01T03:36:01.980Z,6.03
2018-12-01T03:40:10.124Z,5.95
2018-12-01T03:44:20.108Z,5.97
2018-12-01T03:48:27.959Z,6.04
2018-12-01T03:52:35.688Z,6.18
2018-12-01T03:56:43.290Z,6.15
2018-12-01T04:00:50.963Z,6.18
2018-12-01T04:04:58.574Z,6.10
2018-12-01T04:09:25.438Z,6.19
2018-12-01T04:13:34.040Z,6.19
2018-12-01T04:17:43.929Z,6.13
2018-12-01T04:21:51.375Z,6.07
2018-12-01T04:25:59.712Z,5.94
2018-12-01T04:30:33.451Z,5.94
2018-12-01T04:34:40.974Z,6.03
2018-12-01T04:38:48.967Z,6.01
2018-12-01T04:42:56.549Z,5.83
2018-12-01T04:47:04.212Z,5.75
2018-12-01T04:51:14.192Z,5.82
2018-12-01T04:55:22.737Z,5.80
2018-12-01T04:59:30.256Z,5.81
2018-12-01T05:03:37.635Z,5.79
2018-12-01T05:07:46.132Z,5.83
2018-12-01T05:11:53.905Z,5.86
2018-12-01T05:16:01.664Z,5.89
2018-12-01T05:20:22.501Z,5.93
2018-12-01T05:24:30.053Z,5.89
2018-12-01T05:28:37.577Z,5.96
2018-12-01T05:32:45.523Z,6.06
2018-12-01T05:36:55.349Z,5.96
2018-12-01T05:41:03.096Z,6.06
2018-12-01T05:45:21.653Z,6.03
2018-12-01T05:49:29.407Z,6.12
2018-12-01T05:53:42.037Z,6.16
2018-12-01T05:57:50.182Z,6.14
2018-12-01T06:01:58.041Z,6.03
2018-12-01T06:06:06.121Z,6.02
2018-12-01T06:10:23.324Z,6.02
2018-12-01T06:14:31.264Z,6.08
2018-12-01T06:18:38.958Z,6.09
2018-12-01T06:22:46.861Z,6.14
2018-12-01T06:26:54.657Z,6.13
2018-12-01T06:31:02.328Z,6.11
2018-12-01T06:35:10.178Z,6.13
2018-12-01T06:39:17.710Z,6.17
2018-12-01T06:43:25.401Z,6.31
2018-12-01T06:47:33.256Z,6.24
2018-12-01T06:51:41.694Z,6.18
2018-12-01T06:55:49.154Z,6.34
2018-12-01T06:59:56.616Z,6.39
2018-12-01T07:04:04.576Z,6.38
2018-12-01T07:08:16.832Z,6.33
2018-12-01T07:12:24.683Z,6.29
2018-12-01T07:16:32.350Z,6.32
2018-12-01T07:20:40.048Z,6.37
2018-12-01T07:24:51.618Z,6.26
2018-12-01T07:29:06.967Z,6.32
2018-12-01T07:33:14.790Z,6.26
2018-12-01T07:37:22.279Z,6.30
2018-12-01T07:41:30.137Z,6.36
2018-12-01T07:45:40.259Z,6.38
2018-12-01T07:49:48.074Z,6.38
2018-12-01T07:53:55.823Z,6.33
2018-12-01T07:58:03.821Z,6.36
2018-12-01T08:02:11.527Z,6.29
2018-12-01T08:06:29.364Z,6.43
2018-12-01T08:10:37.755Z,6.34
2018-12-01T08:14:46.126Z,6.47
2018-12-01T08:18:54.628Z,6.42
2018-12-01T08:23:04.233Z,6.48
2018-12-01T08:27:12.633Z,6.49
2018-12-01T08:31:25.878Z,6.54
2018-12-01T08:35:33.765Z,6.65
2018-12-01T08:39:41.795Z,6.69
2018-12-01T08:43:49.365Z,6.87
2018-12-01T08:47:57.403Z,6.86
2018-12-01T08:52:06.280Z,6.99
2018-12-01T08:56:13.730Z,6.92
2018-12-01T09:00:42.322Z,6.95
2018-12-01T09:04:50.003Z,6.97
2018-12-01T09:08:57.945Z,7.14
2018-12-01T09:13:05.705Z,7.07
2018-12-01T09:17:14.994Z,7.11
2018-12-01T09:21:22.595Z,7.15
2018-12-01T09:25:38.286Z,7.25
2018-12-01T09:29:47.197Z,7.37
2018-12-01T09:33:54.858Z,7.36
2018-12-01T09:38:03.071Z,7.42
2018-12-01T09:42:11.055Z,7.60
2018-12-01T09:46:19.523Z,7.65
2018-12-01T09:50:27.400Z,7.74
2018-12-01T09:54:35.217Z,7.85
2018-12-01T09:58:46.451Z,7.88
2018-12-01T10:02:52.770Z,7.94
2018-12-01T10:07:00.556Z,8.00
2018-12-01T10:11:08.197Z,8.00
2018-12-01T10:15:29.132Z,8.09
2018-12-01T10:19:36.951Z,8.19
2018-12-01T10:23:44.877Z,8.12
2018-12-01T10:27:52.849Z,8.23
2018-12-01T10:32:00.553Z,8.17
2018-12-01T10:36:09.597Z,8.26
2018-12-01T10:40:17.559Z,8.19
2018-12-01T10:44:25.583Z,8.23
2018-12-01T10:48:36.279Z,8.41
2018-12-01T10:52:44.372Z,8.66
2018-12-01T10:56:52.227Z,8.62
2018-12-01T11:01:17.046Z,8.40
2018-12-01T11:05:27.501Z,8.40
2018-12-01T11:09:35.350Z,8.46
2018-12-01T11:13:43.291Z,8.62
2018-12-01T11:17:51.371Z,8.65
2018-12-01T11:21:58.974Z,8.48
2018-12-01T11:26:06.775Z,8.54
2018-12-01T11:30:18.772Z,8.61
2018-12-01T11:34:26.183Z,8.63
2018-12-01T11:38:34.405Z,8.66
2018-12-01T11:42:42.214Z,8.85
2018-12-01T11:46:50.406Z,8.83
2018-12-01T11:50:58.141Z,9.04
2018-12-01T11:55:06.277Z,9.00
2018-12-01T11:59:13.901Z,9.18
2018-12-01T12:03:27.806Z,9.24
2018-12-01T12:08:28.061Z,9.20
2018-12-01T12:12:35.736Z,9.42
2018-12-01T12:16:43.459Z,9.27
2018-12-01T12:20:51.247Z,9.25
2018-12-01T12:25:01.002Z,9.38
2018-12-01T12:29:24.049Z,9.47
2018-12-01T12:33:35.574Z,9.48
2018-12-01T12:37:45.864Z,9.45
2018-12-01T12:41:59.585Z,9.43
2018-12-01T12:46:14.745Z,9.56
2018-12-01T12:50:26.019Z,9.40
2018-12-01T12:54:36.849Z,9.53
2018-12-01T12:58:45.751Z,9.55
2018-12-01T13:03:12.099Z,9.43
2018-12-01T13:07:20.471Z,9.41
2018-12-01T13:11:39.574Z,9.44
2018-12-01T13:15:48.881Z,9.48
2018-12-01T13:19:56.877Z,9.46
2018-12-01T13:24:04.627Z,9.59
2018-12-01T13:28:29.333Z,9.61
2018-12-01T13:32:37.737Z,9.49
2018-12-01T13:36:45.627Z,9.55
2018-12-01T13:40:56.821Z,9.48
2018-12-01T13:45:06.163Z,9.60
2018-12-01T13:49:19.801Z,9.63
2018-12-01T13:53:31.344Z,9.52
2018-12-01T13:57:47.583Z,9.50
2018-12-01T14:01:57.583Z,9.52
2018-12-01T14:06:07.495Z,9.53
2018-12-01T14:10:36.721Z,9.60
2018-12-01T14:14:45.464Z,9.56
2018-12-01T14:18:57.807Z,9.56
2018-12-01T14:23:13.606Z,9.53
2018-12-01T14:27:26.965Z,9.54
2018-12-01T14:31:47.486Z,9.49
2018-12-01T14:35:59.385Z,9.45
2018-12-01T14:40:13.872Z,9.41
2018-12-01T14:44:21.399Z,9.38
2018-12-01T14:48:28.846Z,9.33
2018-12-01T14:52:37.105Z,9.28
2018-12-01T14:56:45.518Z,9.31
2018-12-01T15:00:52.949Z,9.31
2018-12-01T15:05:00.443Z,9.25
2018-12-01T15:09:11.434Z,9.20
2018-12-01T15:13:21.486Z,9.23
2018-12-01T15:17:35.073Z,9.16
2018-12-01T15:21:46.647Z,9.12
2018-12-01T15:25:54.420Z,9.10
2018-12-01T15:30:07.749Z,9.04
2018-12-01T15:34:15.932Z,9.02
2018-12-01T15:38:23.823Z,9.02
2018-12-01T15:42:34.345Z,9.04
2018-12-01T15:46:46.255Z,9.03
2018-12-01T15:50:52.431Z,9.00
2018-12-01T15:55:02.823Z,8.91
2018-12-01T15:59:10.394Z,9.06
2018-12-01T16:03:19.975Z,9.03
2018-12-01T16:07:29.199Z,9.03
2018-12-01T16:11:37.884Z,8.93
2018-12-01T16:15:57.682Z,8.92
2018-12-01T16:20:25.822Z,8.89
2018-12-01T16:24:44.559Z,8.91
2018-12-01T16:28:54.548Z,8.83
2018-12-01T16:33:09.717Z,8.75
2018-12-01T16:37:26.454Z,8.72
2018-12-01T16:41:41.775Z,8.71
2018-12-01T16:45:55.316Z,8.71
2018-12-01T16:50:14.329Z,8.72
2018-12-01T16:54:25.066Z,8.64
2018-12-01T16:58:41.197Z,8.70
2018-12-01T17:03:11.982Z,8.62
2018-12-01T17:07:30.201Z,8.63
2018-12-01T17:11:41.934Z,8.58
2018-12-01T17:15:51.822Z,8.58
2018-12-01T17:20:00.053Z,8.59
2018-12-01T17:24:10.007Z,8.45
2018-12-01T17:28:22.699Z,8.47
2018-12-01T17:32:41.847Z,8.39
2018-12-01T17:36:51.482Z,8.27
2018-12-01T17:41:15.033Z,8.28
2018-12-01T17:45:28.633Z,8.43
2018-12-01T17:49:40.329Z,8.37
2018-12-01T17:53:59.387Z,8.40
2018-12-01T17:58:10.879Z,8.43
2018-12-01T18:02:19.241Z,8.48
2018-12-01T18:06:30.719Z,8.56
2018-12-01T18:10:48.710Z,8.61
2018-12-01T18:15:09.316Z,8.71
2018-12-01T18:19:17.968Z,8.79
2018-12-01T18:23:26.575Z,8.81
2018-12-01T18:27:36.916Z,8.82
2018-12-01T18:31:44.637Z,8.78
2018-12-01T18:35:52.466Z,8.77
2018-12-01T18:40:00.251Z,8.79
2018-12-01T18:44:09.749Z,8.74
2018-12-01T18:48:17.791Z,8.73
2018-12-01T18:52:25.907Z,8.74
2018-12-01T18:56:33.890Z,8.72
2018-12-01T19:00:49.953Z,8.75
2018-12-01T19:04:57.610Z,8.72
2018-12-01T19:09:06.313Z,8.72
2018-12-01T19:13:14.964Z,8.76
2018-12-01T19:17:22.990Z,8.67
2018-12-01T19:21:30.719Z,8.72
2018-12-01T19:25:39.285Z,8.73
2018-12-01T19:29:47.094Z,8.73
2018-12-01T19:33:54.717Z,8.73
2018-12-01T19:38:02.812Z,8.65
2018-12-01T19:42:10.775Z,8.65
2018-12-01T19:46:18.884Z,8.65
2018-12-01T19:50:39.054Z,8.65
2018-12-01T19:54:46.952Z,8.62
2018-12-01T19:58:54.769Z,8.64
2018-12-01T20:03:08.056Z,8.59
2018-12-01T20:07:16.360Z,8.55
2018-12-01T20:11:24.477Z,8.56
2018-12-01T20:15:43.770Z,8.62
2018-12-01T20:19:54.711Z,8.65
2018-12-01T20:24:04.523Z,8.63
2018-12-01T20:28:12.661Z,8.58
2018-12-01T20:32:20.743Z,8.54
2018-12-01T20:36:34.883Z,8.62
2018-12-01T20:40:43.224Z,8.59
2018-12-01T20:44:54.221Z,8.52
2018-12-01T20:49:02.470Z,8.58
2018-12-01T20:53:11.300Z,8.58
2018-12-01T20:57:33.653Z,8.54
2018-12-01T21:01:44.103Z,8.46
2018-12-01T21:05:51.990Z,8.60
2018-12-01T21:10:00.822Z,8.54
2018-12-01T21:14:09.115Z,8.54
2018-12-01T21:18:17.052Z,8.55
2018-12-01T21:22:24.964Z,8.54
2018-12-01T21:26:33.410Z,8.55
2018-12-01T21:30:41.791Z,8.62
2018-12-01T21:34:49.526Z,8.57
2018-12-01T21:38:57.331Z,8.61
2018-12-01T21:43:05.523Z,8.70
2018-12-01T21:47:13.395Z,8.70
2018-12-01T21:51:21.255Z,8.74
2018-12-01T21:55:29.259Z,8.86
2018-12-01T21:59:37.124Z,8.87
2018-12-01T22:03:45.015Z,8.93
2018-12-01T22:07:52.761Z,8.95
2018-12-01T22:12:01.430Z,8.98
2018-12-01T22:16:11.273Z,9.02
2018-12-01T22:20:25.948Z,9.04
2018-12-01T22:24:35.792Z,9.05
2018-12-01T22:28:43.470Z,9.09
2018-12-01T22:33:20.849Z,9.09
2018-12-01T22:37:28.431Z,9.10
2018-12-01T22:41:36.053Z,9.12
2018-12-01T22:45:44.868Z,9.15
2018-12-01T22:49:52.483Z,9.15
2018-12-01T22:54:00.509Z,9.13
2018-12-01T22:58:14.009Z,9.12
2018-12-01T23:02:21.631Z,9.12
2018-12-01T23:06:29.428Z,9.15
2018-12-01T23:10:37.065Z,9.14
2018-12-01T23:14:44.988Z,9.11
2018-12-01T23:18:52.931Z,9.12
2018-12-01T23:23:02.936Z,9.08
2018-12-01T23:27:13.136Z,9.05
2018-12-01T23:31:19.314Z,9.00
2018-12-01T23:35:26.931Z,8.93
2018-12-01T23:39:34.652Z,8.88
2018-12-01T23:43:42.261Z,8.81
2018-12-01T23:47:50.592Z,8.77
2018-12-01T23:52:00.915Z,8.75
2018-12-01T23:56:11.877Z,8.76
